Maersk Danang — A8PS5 — position and weather

sailwx.info

Track history (hours):
 
Tides and Currents Weather Stations Pressure Air Temp Water Temp Dewpoint Dewpoint Depression Visibility Wind Speed Wind Dir Waves Ship Positions

Maersk Danang

Last reported at 2015-Jan-25 19:33 UTC. Time now 2015-Jan-25 20:22 UTC.
Position N 31°59' W 080°46'.

Length 293 m; draft 11.3 m.

Type: Ship. MMSI: 636091595.

Date/timePositionNaut miles runAvg speedWind from/ knotsBaromVisibWave heightAir tempDewpointWater temp
2015-Jan-25 19:33N 31°59' W 080°46'11 9.1
2015-Jan-25 18:21N 31°56' W 080°34'  
2015-Jan-23 10:31N 39°30' W 073°55'1614.8
2015-Jan-23 09:27N 39°46' W 073°52'3812.4
2015-Jan-23 06:22N 40°24' W 073°49'8 8.7
2015-Jan-23 05:29N 40°30' W 073°56'1212.4
2015-Jan-23 04:33N 40°39' W 074°05'3 3.0
2015-Jan-23 03:31N 40°40' W 074°09'0 0.0
2015-Jan-23 02:25N 40°40' W 074°09'0 0.0
2015-Jan-23 01:25N 40°40' W 074°09'0 0.0
2015-Jan-23 00:33N 40°40' W 074°09'0 0.0
2015-Jan-22 23:33N 40°40' W 074°09'0 0.0
2015-Jan-22 22:29N 40°40' W 074°09'0 0.0
2015-Jan-22 21:29N 40°40' W 074°09'0 0.0
2015-Jan-22 20:28N 40°40' W 074°09'0 0.0
2015-Jan-22 19:28N 40°40' W 074°09'0 0.0
2015-Jan-22 18:28N 40°40' W 074°09'0 0.0
2015-Jan-22 17:33N 40°40' W 074°09'0 0.4
2015-Jan-22 16:33N 40°39' W 074°09'5 5.1
2015-Jan-22 15:33N 40°37' W 074°03'1211.4
2015-Jan-22 14:32N 40°28' W 073°52'  
2015-Jan-18 11:32N 38°05' W 032°21'2420.0
2015-Jan-18 10:21N 38°02' W 031°51'1619.9
2015-Jan-18 09:31N 37°60' W 031°30'2019.7
2015-Jan-18 08:30N 37°57' W 031°05'1919.8
2015-Jan-18 07:33N 37°54' W 030°41'2119.9
2015-Jan-18 06:30N 37°52' W 030°15'1919.6
2015-Jan-18 05:33N 37°48' W 029°52'1919.3
2015-Jan-18 04:33N 37°43' W 029°29'2019.7
2015-Jan-18 03:33N 37°38' W 029°04'2019.8
2015-Jan-18 02:33N 37°32' W 028°40'2019.7
2015-Jan-18 01:33N 37°27' W 028°17'2019.7
2015-Jan-18 00:34N 37°22' W 027°53'2020.0
2015-Jan-17 23:33N 37°16' W 027°28'2020.2
2015-Jan-17 22:33N 37°11' W 027°04'2020.0
2015-Jan-17 21:33N 37°05' W 026°40'2019.9
2015-Jan-17 20:33N 36°60' W 026°16'2019.5
2015-Jan-17 19:33N 36°55' W 025°52'1919.4
2015-Jan-17 18:33N 36°50' W 025°29'2019.8
2015-Jan-17 17:34N 36°44' W 025°05'2019.6
2015-Jan-17 16:33N 36°42' W 024°41'2019.6
2015-Jan-17 15:34N 36°41' W 024°16'2019.5
2015-Jan-17 14:33N 36°40' W 023°52'  
Track history (hours):
 
Tides and Currents Weather Stations Pressure Air Temp Water Temp Dewpoint Dewpoint Depression Visibility Wind Speed Wind Dir Waves Ship Positions

Maersk Danang

Last reported at 2015-Jan-25 19:33 UTC. Time now 2015-Jan-25 20:22 UTC.
Position N 31°59' W 080°46'.

Length 293 m; draft 11.3 m.

Type: Ship. MMSI: 636091595.

Date/timePositionNaut miles runAvg speedWind from/ knotsBaromVisibWave heightAir tempDewpointWater temp
2015-Jan-25 19:33N 31°59' W 080°46'11 9.1
2015-Jan-25 18:21N 31°56' W 080°34'  
2015-Jan-23 10:31N 39°30' W 073°55'1614.8
2015-Jan-23 09:27N 39°46' W 073°52'3812.4
2015-Jan-23 06:22N 40°24' W 073°49'8 8.7
2015-Jan-23 05:29N 40°30' W 073°56'1212.4
2015-Jan-23 04:33N 40°39' W 074°05'3 3.0
2015-Jan-23 03:31N 40°40' W 074°09'0 0.0
2015-Jan-23 02:25N 40°40' W 074°09'0 0.0
2015-Jan-23 01:25N 40°40' W 074°09'0 0.0
2015-Jan-23 00:33N 40°40' W 074°09'0 0.0
2015-Jan-22 23:33N 40°40' W 074°09'0 0.0
2015-Jan-22 22:29N 40°40' W 074°09'0 0.0
2015-Jan-22 21:29N 40°40' W 074°09'0 0.0
2015-Jan-22 20:28N 40°40' W 074°09'0 0.0
2015-Jan-22 19:28N 40°40' W 074°09'0 0.0
2015-Jan-22 18:28N 40°40' W 074°09'0 0.0
2015-Jan-22 17:33N 40°40' W 074°09'0 0.4
2015-Jan-22 16:33N 40°39' W 074°09'5 5.1
2015-Jan-22 15:33N 40°37' W 074°03'1211.4
2015-Jan-22 14:32N 40°28' W 073°52'  
2015-Jan-18 11:32N 38°05' W 032°21'2420.0
2015-Jan-18 10:21N 38°02' W 031°51'1619.9
2015-Jan-18 09:31N 37°60' W 031°30'2019.7
2015-Jan-18 08:30N 37°57' W 031°05'1919.8
2015-Jan-18 07:33N 37°54' W 030°41'2119.9
2015-Jan-18 06:30N 37°52' W 030°15'1919.6
2015-Jan-18 05:33N 37°48' W 029°52'1919.3
2015-Jan-18 04:33N 37°43' W 029°29'2019.7
2015-Jan-18 03:33N 37°38' W 029°04'2019.8
2015-Jan-18 02:33N 37°32' W 028°40'2019.7
2015-Jan-18 01:33N 37°27' W 028°17'2019.7
2015-Jan-18 00:34N 37°22' W 027°53'2020.0
2015-Jan-17 23:33N 37°16' W 027°28'2020.2
2015-Jan-17 22:33N 37°11' W 027°04'2020.0
2015-Jan-17 21:33N 37°05' W 026°40'2019.9
2015-Jan-17 20:33N 36°60' W 026°16'2019.5
2015-Jan-17 19:33N 36°55' W 025°52'1919.4
2015-Jan-17 18:33N 36°50' W 025°29'2019.8
2015-Jan-17 17:34N 36°44' W 025°05'2019.6
2015-Jan-17 16:33N 36°42' W 024°41'2019.6
2015-Jan-17 15:34N 36°41' W 024°16'2019.5
2015-Jan-17 14:33N 36°40' W 023°52'  

Dump ship's entire track history